Aviation Digital Data Service (ADDS)

Output produced by TAFs form (0853 UTC 27 June 2017)
found at http://www.aviationweather.gov/adds/tafs/
 
KMRB 270531Z 2706/2806 18004KT P6SM OVC080 
     FM271300 27008KT P6SM BKN250 
     FM272000 28010KT P6SM SCT070 
     FM280100 31006KT P6SM FEW070